Adamstown, Maryland
Current Conditions -  °F | °C
As of 6:45 AM on Wednesday 28 Jan 2015 (Local Time) from KFDK Reporting Station
Clear Clear  
Wind Chill: 14°   Ceiling: Unl
Heat Index: 21°   Visibility: 10mi
Dew Point:   Wind: 6mph
Humidity: 42%   Direction: 310°NW
Pressure: 30.19"   Gusts: NA
Location:  39.31°N, 77.47°W
Report Text: KFDK 281145Z 31005KT 10SM SKC M06/M17 A3019
Loading
Personal Weather Stations






























Interactive Weather Map New forecast layout! Learn more

10-Day Weather Forecast

Advertisements
Track Severe Weather on mobile